Time,TemperatureF,DewpointF,PressureIn,WindDirection,WindDirectionDegrees,WindSpeedMPH,WindSpeedGustMPH,Humidity,HourlyPrecipIn,Conditions,Clouds,dailyrainin,SoftwareType,DateUTC
2013-09-16 00:00:00,57.5,55.2,30.06,SE,134,0.0,0.0,92,0.00,,---,0.01,VWS V14.01,2013-09-16 04:00:00,
2013-09-16 00:10:00,57.3,55.0,30.06,SE,134,0.0,0.0,92,0.00,,---,0.01,VWS V14.01,2013-09-16 04:10:00,
2013-09-16 00:20:00,57.2,55.2,30.06,SE,134,0.0,0.0,93,0.00,,---,0.01,VWS V14.01,2013-09-16 04:20:00,
2013-09-16 07:23:00,55.5,54.1,30.11,WNW,295,0.0,0.0,95,0.39,,---,0.39,VWS V14.01,2013-09-16 11:23:00,
2013-09-16 07:24:00,55.5,54.1,30.11,WNW,295,0.0,0.0,95,0.39,,---,0.39,VWS V14.01,2013-09-16 11:24:00,
2013-09-16 07:29:00,55.6,54.2,30.12,West,267,0.0,0.0,95,0.00,,---,0.39,VWS V14.01,2013-09-16 11:29:00,
2013-09-16 07:30:00,55.6,54.2,30.12,WNW,295,0.0,0.0,95,0.39,,---,0.39,VWS V14.01,2013-09-16 11:30:00,
2013-09-16 07:34:00,55.6,54.2,30.12,WSW,250,0.0,0.0,95,0.00,,---,0.39,VWS V14.01,2013-09-16 11:34:00,
2013-09-16 07:39:00,55.7,54.3,30.12,WSW,250,0.0,0.0,95,0.00,,---,0.39,VWS V14.01,2013-09-16 11:39:00,
2013-09-16 07:40:00,55.6,54.2,30.12,WSW,250,0.0,0.0,95,0.00,,---,0.39,VWS V14.01,2013-09-16 11:40:00,
2013-09-16 07:44:00,55.7,54.6,30.11,WSW,250,0.0,0.0,96,0.00,,---,0.39,VWS V14.01,2013-09-16 11:44:00,
2013-09-16 07:49:00,55.7,54.3,30.12,WSW,250,0.0,0.0,95,0.00,,---,0.39,VWS V14.01,2013-09-16 11:49:00,
2013-09-16 07:50:00,55.7,54.3,30.12,WSW,250,0.0,0.0,95,0.00,,---,0.39,VWS V14.01,2013-09-16 11:50:00,
2013-09-16 07:54:00,55.7,54.3,30.12,WSW,250,0.0,0.0,95,0.00,,---,0.39,VWS V14.01,2013-09-16 11:54:00,
2013-09-16 07:59:00,55.7,54.3,30.12,NW,315,0.0,0.0,95,0.00,,---,0.39,VWS V14.01,2013-09-16 11:59:00,
2013-09-16 08:00:00,55.7,54.3,30.12,NW,315,0.0,0.0,95,0.00,,---,0.39,VWS V14.01,2013-09-16 12:00:00,
2013-09-16 08:04:00,55.7,54.3,30.12,NNW,333,0.0,0.0,95,0.00,,---,0.39,VWS V14.01,2013-09-16 12:04:00,
2013-09-16 08:09:00,55.7,54.3,30.12,NNW,333,0.0,0.0,95,0.00,,---,0.39,VWS V14.01,2013-09-16 12:09:00,
2013-09-16 08:10:00,55.7,54.3,30.12,NNW,333,0.0,0.0,95,0.00,,---,0.39,VWS V14.01,2013-09-16 12:10:00,
2013-09-16 08:14:00,55.8,54.4,30.12,NNW,333,0.0,0.0,95,0.00,,---,0.39,VWS V14.01,2013-09-16 12:14:00,
2013-09-16 08:19:00,55.8,54.7,30.13,NNW,332,0.0,0.0,96,0.00,,---,0.39,VWS V14.01,2013-09-16 12:19:00,
2013-09-16 08:20:00,55.8,54.4,30.13,NNW,332,0.0,0.0,95,0.00,,---,0.39,VWS V14.01,2013-09-16 12:20:00,
2013-09-16 08:24:00,56.0,54.9,30.13,NW,320,0.0,0.0,96,0.00,,---,0.39,VWS V14.01,2013-09-16 12:24:00,
2013-09-16 08:29:00,56.1,55.0,30.13,NW,319,0.0,0.0,96,0.00,,---,0.39,VWS V14.01,2013-09-16 12:29:00,
2013-09-16 08:30:00,56.1,55.0,30.13,NW,320,0.0,0.0,96,0.00,,---,0.39,VWS V14.01,2013-09-16 12:30:00,
2013-09-16 08:34:00,56.2,55.1,30.13,NW,321,0.0,0.0,96,0.00,,---,0.39,VWS V14.01,2013-09-16 12:34:00,
2013-09-16 08:39:00,56.2,54.8,30.14,NW,319,0.0,0.0,95,0.00,,---,0.39,VWS V14.01,2013-09-16 12:39:00,
2013-09-16 08:40:00,56.2,54.8,30.13,NW,319,0.0,0.0,95,0.00,,---,0.39,VWS V14.01,2013-09-16 12:40:00,
2013-09-16 08:44:00,56.3,54.9,30.14,NW,319,0.0,0.0,95,0.00,,---,0.39,VWS V14.01,2013-09-16 12:44:00,
2013-09-16 08:49:00,56.2,54.8,30.14,NW,324,0.0,0.0,95,0.00,,---,0.39,VWS V14.01,2013-09-16 12:49:00,
2013-09-16 08:50:00,56.2,54.8,30.14,NW,324,0.0,0.0,95,0.00,,---,0.39,VWS V14.01,2013-09-16 12:50:00,
2013-09-16 08:54:00,56.2,54.8,30.14,WNW,288,0.0,1.0,95,0.00,,---,0.39,VWS V14.01,2013-09-16 12:54:00,
2013-09-16 08:59:00,56.2,54.8,30.14,NW,323,0.0,0.0,95,0.00,,---,0.39,VWS V14.01,2013-09-16 12:59:00,
2013-09-16 09:00:00,56.2,54.8,30.14,NW,306,0.0,1.0,95,0.00,,---,0.39,VWS V14.01,2013-09-16 13:00:00,
2013-09-16 09:04:00,56.3,54.9,30.14,NW,321,0.0,1.0,95,0.00,,---,0.39,VWS V14.01,2013-09-16 13:04:00,
2013-09-16 09:09:00,56.5,55.1,30.14,NW,323,0.0,1.0,95,0.00,,---,0.39,VWS V14.01,2013-09-16 13:09:00,
2013-09-16 09:10:00,56.4,55.0,30.14,NNW,344,0.0,1.0,95,0.00,,---,0.39,VWS V14.01,2013-09-16 13:10:00,
2013-09-16 09:14:00,56.6,54.9,30.14,West,267,0.0,1.0,94,0.00,,---,0.39,VWS V14.01,2013-09-16 13:14:00,
2013-09-16 09:19:00,56.7,55.0,30.14,WNW,303,0.0,0.0,94,0.00,,---,0.39,VWS V14.01,2013-09-16 13:19:00,
2013-09-16 09:20:00,56.7,55.0,30.14,WNW,303,0.0,1.0,94,0.00,,---,0.39,VWS V14.01,2013-09-16 13:20:00,
2013-09-16 09:24:00,56.9,55.2,30.14,West,269,0.0,1.0,94,0.00,,---,0.39,VWS V14.01,2013-09-16 13:24:00,
2013-09-16 09:29:00,57.4,55.7,30.15,WNW,284,0.0,1.0,94,0.00,,---,0.39,VWS V14.01,2013-09-16 13:29:00,
2013-09-16 09:30:00,57.2,55.5,30.15,WSW,250,0.0,1.0,94,0.00,,---,0.39,VWS V14.01,2013-09-16 13:30:00,
2013-09-16 09:34:00,57.5,55.5,30.15,WNW,296,0.0,1.0,93,0.00,,---,0.39,VWS V14.01,2013-09-16 13:34:00,
2013-09-16 09:39:00,57.4,55.4,30.15,NNW,336,0.0,1.0,93,0.00,,---,0.39,VWS V14.01,2013-09-16 13:39:00,
2013-09-16 09:40:00,57.5,55.5,30.15,NNE,12,0.0,1.0,93,0.00,,---,0.39,VWS V14.01,2013-09-16 13:40:00,
2013-09-16 09:44:00,57.4,55.4,30.15,NW,326,1.0,2.0,93,0.00,,---,0.39,VWS V14.01,2013-09-16 13:44:00,
2013-09-16 09:49:00,57.4,55.4,30.16,SW,232,0.0,0.0,93,0.00,,---,0.39,VWS V14.01,2013-09-16 13:49:00,
2013-09-16 09:50:00,57.4,55.4,30.16,WNW,294,0.0,2.0,93,0.00,,---,0.39,VWS V14.01,2013-09-16 13:50:00,
2013-09-16 09:54:00,57.5,55.2,30.16,NNW,333,0.0,1.0,92,0.00,,---,0.39,VWS V14.01,2013-09-16 13:54:00,
2013-09-16 09:59:00,57.8,55.5,30.16,NW,313,3.0,3.0,92,0.00,,---,0.39,VWS V14.01,2013-09-16 13:59:00,
2013-09-16 10:00:00,57.8,55.8,30.16,East,90,0.0,1.0,93,0.00,,---,0.39,VWS V14.01,2013-09-16 14:00:00,
2013-09-16 10:04:00,58.0,55.7,30.16,WNW,290,0.0,3.0,92,0.00,,---,0.39,VWS V14.01,2013-09-16 14:04:00,
2013-09-16 10:09:00,58.1,55.5,30.16,NW,306,0.0,1.0,91,0.00,,---,0.39,VWS V14.01,2013-09-16 14:09:00,
2013-09-16 10:10:00,58.1,55.5,30.16,NW,307,1.0,3.0,91,0.00,,---,0.39,VWS V14.01,2013-09-16 14:10:00,
2013-09-16 10:14:00,58.4,56.1,30.16,WNW,294,0.0,1.0,92,0.00,,---,0.39,VWS V14.01,2013-09-16 14:14:00,
2013-09-16 10:19:00,58.8,56.2,30.16,NNW,328,0.0,0.0,91,0.00,,---,0.39,VWS V14.01,2013-09-16 14:19:00,
2013-09-16 10:20:00,58.7,56.1,30.16,SW,236,0.0,1.0,91,0.00,,---,0.39,VWS V14.01,2013-09-16 14:20:00,
2013-09-16 10:24:00,59.1,56.5,30.16,West,260,0.0,0.0,91,0.00,,---,0.39,VWS V14.01,2013-09-16 14:24:00,
2013-09-16 10:29:00,59.1,55.9,30.16,NNE,33,0.0,1.0,89,0.00,,---,0.39,VWS V14.01,2013-09-16 14:29:00,
2013-09-16 10:30:00,59.1,55.9,30.16,NW,313,1.0,2.0,89,0.00,,---,0.39,VWS V14.01,2013-09-16 14:30:00,
2013-09-16 10:34:00,59.2,56.0,30.16,NNW,342,0.0,2.0,89,0.00,,---,0.39,VWS V14.01,2013-09-16 14:34:00,
2013-09-16 10:39:00,59.2,55.7,30.16,NE,34,2.0,2.0,88,0.00,,---,0.39,VWS V14.01,2013-09-16 14:39:00,
2013-09-16 10:40:00,59.3,56.1,30.16,NNE,31,1.0,2.0,89,0.00,,---,0.39,VWS V14.01,2013-09-16 14:40:00,
2013-09-16 10:44:00,59.3,56.1,30.16,NNE,22,0.0,3.0,89,0.00,,---,0.39,VWS V14.01,2013-09-16 14:44:00,
2013-09-16 10:49:00,59.7,56.2,30.17,NE,47,0.0,0.0,88,0.00,,---,0.39,VWS V14.01,2013-09-16 14:49:00,
2013-09-16 10:50:00,59.6,56.0,30.17,NNW,331,0.0,3.0,88,0.00,,---,0.39,VWS V14.01,2013-09-16 14:50:00,
2013-09-16 10:54:00,59.8,55.9,30.17,NNE,27,0.0,1.0,87,0.00,,---,0.39,VWS V14.01,2013-09-16 14:54:00,
2013-09-16 10:59:00,60.1,55.9,30.17,NE,46,0.0,2.0,86,0.00,,---,0.39,VWS V14.01,2013-09-16 14:59:00,
2013-09-16 11:00:00,60.1,56.2,30.17,NNW,336,2.0,2.0,87,0.00,,---,0.39,VWS V14.01,2013-09-16 15:00:00,
2013-09-16 11:04:00,60.3,56.1,30.17,NNW,342,0.0,2.0,86,0.00,,---,0.39,VWS V14.01,2013-09-16 15:04:00,
2013-09-16 11:09:00,60.3,55.8,30.17,NNW,334,0.0,2.0,85,0.00,,---,0.39,VWS V14.01,2013-09-16 15:09:00,
2013-09-16 11:10:00,60.3,55.8,30.17,North,350,2.0,3.0,85,0.00,,---,0.39,VWS V14.01,2013-09-16 15:10:00,
2013-09-16 11:14:00,60.2,55.3,30.17,NNW,331,0.0,2.0,84,0.00,,---,0.39,VWS V14.01,2013-09-16 15:14:00,
2013-09-16 11:19:00,60.2,55.7,30.17,NNE,25,1.0,3.0,85,0.00,,---,0.39,VWS V14.01,2013-09-16 15:19:00,
2013-09-16 11:20:00,60.2,55.7,30.17,NNW,331,1.0,3.0,85,0.00,,---,0.39,VWS V14.01,2013-09-16 15:20:00,
2013-09-16 11:24:00,60.3,56.1,30.17,NNW,339,0.0,3.0,86,0.00,,---,0.39,VWS V14.01,2013-09-16 15:24:00,
2013-09-16 11:29:00,60.5,56.0,30.17,West,268,0.0,0.0,85,0.00,,---,0.39,VWS V14.01,2013-09-16 15:29:00,
2013-09-16 11:30:00,60.5,56.0,30.17,NNE,30,0.0,3.0,85,0.00,,---,0.39,VWS V14.01,2013-09-16 15:30:00,
2013-09-16 11:35:00,61.0,56.5,30.17,NW,323,0.0,2.0,85,0.00,,---,0.39,VWS V14.01,2013-09-16 15:35:00,
2013-09-16 11:40:00,61.0,56.1,30.17,NW,306,0.0,1.0,84,0.00,,---,0.39,VWS V14.01,2013-09-16 15:40:00,
2013-09-16 11:45:00,61.6,56.4,30.17,NNW,327,0.0,3.0,83,0.00,,---,0.39,VWS V14.01,2013-09-16 15:45:00,
2013-09-16 11:50:00,61.8,56.2,30.17,North,11,3.0,4.0,82,0.00,,---,0.39,VWS V14.01,2013-09-16 15:50:00,
2013-09-16 11:55:00,61.7,56.2,30.17,NE,46,0.0,4.0,82,0.00,,---,0.39,VWS V14.01,2013-09-16 15:55:00,
2013-09-16 12:00:00,62.0,56.5,30.17,NNE,31,0.0,0.0,82,0.00,,---,0.39,VWS V14.01,2013-09-16 16:00:00,
2013-09-16 12:05:00,62.0,55.8,30.17,NE,42,0.0,6.0,80,0.00,,---,0.39,VWS V14.01,2013-09-16 16:05:00,
2013-09-16 12:10:00,62.2,56.0,30.17,NNE,30,0.0,1.0,80,0.00,,---,0.39,VWS V14.01,2013-09-16 16:10:00,
2013-09-16 12:15:00,62.4,56.2,30.17,ENE,76,0.0,2.0,80,0.00,,---,0.39,VWS V14.01,2013-09-16 16:15:00,
2013-09-16 12:20:00,62.5,55.9,30.17,North,350,0.0,3.0,79,0.00,,---,0.39,VWS V14.01,2013-09-16 16:20:00,
2013-09-16 12:25:00,62.8,56.9,30.17,SW,234,0.0,3.0,81,0.00,,---,0.39,VWS V14.01,2013-09-16 16:25:00,
2013-09-16 12:30:00,63.3,56.7,30.17,WNW,284,0.0,1.0,79,0.00,,---,0.39,VWS V14.01,2013-09-16 16:30:00,
2013-09-16 12:35:00,63.2,55.5,30.17,NNW,338,0.0,2.0,76,0.00,,---,0.39,VWS V14.01,2013-09-16 16:35:00,
2013-09-16 12:40:00,62.9,55.9,30.17,WSW,257,0.0,2.0,78,0.00,,---,0.39,VWS V14.01,2013-09-16 16:40:00,
2013-09-16 12:45:00,62.4,54.8,30.17,WNW,295,1.0,4.0,76,0.00,,---,0.39,VWS V14.01,2013-09-16 16:45:00,
2013-09-16 12:50:00,62.5,55.6,30.18,NW,321,0.0,0.0,78,0.00,,---,0.39,VWS V14.01,2013-09-16 16:50:00,
2013-09-16 12:55:00,62.5,54.8,30.18,WNW,288,0.0,4.0,76,0.00,,---,0.39,VWS V14.01,2013-09-16 16:55:00,
2013-09-16 13:00:00,62.6,54.9,30.18,NE,53,0.0,2.0,76,0.00,,---,0.39,VWS V14.01,2013-09-16 17:00:00,
2013-09-16 13:05:00,62.8,55.5,30.18,NW,306,0.0,2.0,77,0.00,,---,0.39,VWS V14.01,2013-09-16 17:05:00,
2013-09-16 13:10:00,62.9,55.2,30.18,NNE,29,0.0,1.0,76,0.00,,---,0.39,VWS V14.01,2013-09-16 17:10:00,
2013-09-16 13:15:00,63.1,54.7,30.18,WNW,299,0.0,2.0,74,0.00,,---,0.39,VWS V14.01,2013-09-16 17:15:00,
2013-09-16 13:20:00,62.9,54.9,30.18,NNE,31,0.0,0.0,75,0.00,,---,0.39,VWS V14.01,2013-09-16 17:20:00,
2013-09-16 13:25:00,62.7,55.0,30.18,NE,38,0.0,1.0,76,0.00,,---,0.39,VWS V14.01,2013-09-16 17:25:00,
2013-09-16 13:30:00,62.5,54.8,30.18,NNW,348,1.0,3.0,76,0.00,,---,0.39,VWS V14.01,2013-09-16 17:30:00,
2013-09-16 13:35:00,62.4,54.8,30.18,SW,235,0.0,3.0,76,0.00,,---,0.39,VWS V14.01,2013-09-16 17:35:00,
2013-09-16 13:40:00,62.5,54.8,30.18,NNW,344,0.0,2.0,76,0.00,,---,0.39,VWS V14.01,2013-09-16 17:40:00,
2013-09-16 13:45:00,62.5,54.8,30.18,NNW,340,0.0,2.0,76,0.00,,---,0.39,VWS V14.01,2013-09-16 17:45:00,
2013-09-16 13:50:00,62.6,55.3,30.18,NNE,22,0.0,0.0,77,0.00,,---,0.39,VWS V14.01,2013-09-16 17:50:00,
2013-09-16 13:55:00,62.8,54.8,30.18,WNW,303,1.0,2.0,75,0.00,,---,0.39,VWS V14.01,2013-09-16 17:55:00,
2013-09-16 14:00:00,63.0,54.2,30.18,NNW,327,0.0,1.0,73,0.00,,---,0.39,VWS V14.01,2013-09-16 18:00:00,
2013-09-16 14:06:00,63.4,54.6,30.18,SW,227,0.0,2.0,73,0.00,,---,0.39,VWS V14.01,2013-09-16 18:06:00,
2013-09-16 14:10:00,63.6,54.8,30.18,NNW,330,0.0,3.0,73,0.00,,---,0.39,VWS V14.01,2013-09-16 18:10:00,
2013-09-16 14:11:00,63.8,55.0,30.18,West,273,0.0,0.0,73,0.00,,---,0.39,VWS V14.01,2013-09-16 18:11:00,
2013-09-16 14:16:00,64.3,54.7,30.18,NW,320,0.0,3.0,71,0.00,,---,0.39,VWS V14.01,2013-09-16 18:16:00,
2013-09-16 14:20:00,64.2,55.0,30.18,East,80,0.0,3.0,72,0.00,,---,0.39,VWS V14.01,2013-09-16 18:20:00,
2013-09-16 14:21:00,64.2,55.4,30.18,NW,306,0.0,2.0,73,0.00,,---,0.39,VWS V14.01,2013-09-16 18:21:00,
2013-09-16 14:26:00,64.3,56.2,30.18,NE,39,0.0,2.0,75,0.00,,---,0.39,VWS V14.01,2013-09-16 18:26:00,
2013-09-16 14:30:00,64.4,55.6,30.18,SSE,154,0.0,2.0,73,0.00,,---,0.39,VWS V14.01,2013-09-16 18:30:00,
2013-09-16 14:31:00,64.5,55.3,30.17,NE,40,0.0,2.0,72,0.00,,---,0.39,VWS V14.01,2013-09-16 18:31:00,
2013-09-16 14:36:00,64.5,54.9,30.17,NNW,333,0.0,2.0,71,0.00,,---,0.39,VWS V14.01,2013-09-16 18:36:00,
2013-09-16 14:40:00,64.5,55.3,30.17,ENE,74,0.0,2.0,72,0.00,,---,0.39,VWS V14.01,2013-09-16 18:40:00,
2013-09-16 14:41:00,64.7,55.5,30.17,NNW,344,0.0,2.0,72,0.00,,---,0.39,VWS V14.01,2013-09-16 18:41:00,
2013-09-16 14:46:00,65.0,55.4,30.17,NW,314,1.0,2.0,71,0.00,,---,0.39,VWS V14.01,2013-09-16 18:46:00,
2013-09-16 14:50:00,65.1,54.7,30.17,NNE,16,1.0,4.0,69,0.00,,---,0.39,VWS V14.01,2013-09-16 18:50:00,
2013-09-16 14:51:00,65.1,55.9,30.17,ENE,77,0.0,3.0,72,0.00,,---,0.39,VWS V14.01,2013-09-16 18:51:00,
2013-09-16 14:56:00,65.9,56.2,30.17,WSW,245,0.0,3.0,71,0.00,,---,0.39,VWS V14.01,2013-09-16 18:56:00,
2013-09-16 15:00:00,66.2,56.1,30.17,SE,133,0.0,6.0,70,0.00,,---,0.39,VWS V14.01,2013-09-16 19:00:00,
2013-09-16 15:01:00,66.5,56.8,30.17,SW,232,1.0,2.0,71,0.00,,---,0.39,VWS V14.01,2013-09-16 19:01:00,
2013-09-16 15:06:00,67.3,56.0,30.17,WSW,253,1.0,4.0,67,0.00,,---,0.39,VWS V14.01,2013-09-16 19:06:00,
2013-09-16 15:10:00,67.0,54.9,30.17,SW,222,0.0,8.0,65,0.00,,---,0.39,VWS V14.01,2013-09-16 19:10:00,
2013-09-16 15:11:00,66.8,55.5,30.17,ENE,65,1.0,2.0,67,0.00,,---,0.39,VWS V14.01,2013-09-16 19:11:00,
2013-09-16 15:16:00,67.3,55.6,30.17,ENE,74,4.0,5.0,66,0.00,,---,0.39,VWS V14.01,2013-09-16 19:16:00,
2013-09-16 15:20:00,67.6,56.3,30.17,West,267,1.0,5.0,67,0.00,,---,0.39,VWS V14.01,2013-09-16 19:20:00,
2013-09-16 15:21:00,67.9,55.7,30.17,WSW,252,1.0,2.0,65,0.00,,---,0.39,VWS V14.01,2013-09-16 19:21:00,
2013-09-16 15:26:00,67.9,56.5,30.16,WSW,250,0.0,4.0,67,0.00,,---,0.39,VWS V14.01,2013-09-16 19:26:00,
2013-09-16 15:30:00,68.1,55.9,30.16,SSW,208,2.0,4.0,65,0.00,,---,0.39,VWS V14.01,2013-09-16 19:30:00,
2013-09-16 15:31:00,68.0,56.2,30.16,WSW,249,0.0,6.0,66,0.00,,---,0.39,VWS V14.01,2013-09-16 19:31:00,
2013-09-16 15:36:00,67.7,55.1,30.16,North,350,0.0,6.0,64,0.00,,---,0.39,VWS V14.01,2013-09-16 19:36:00,
2013-09-16 15:40:00,67.6,55.4,30.16,NW,310,2.0,6.0,65,0.00,,---,0.39,VWS V14.01,2013-09-16 19:40:00,
2013-09-16 15:41:00,67.6,55.8,30.16,WSW,253,0.0,2.0,66,0.00,,---,0.39,VWS V14.01,2013-09-16 19:41:00,
2013-09-16 15:46:00,67.5,55.8,30.16,NW,317,3.0,3.0,66,0.00,,---,0.39,VWS V14.01,2013-09-16 19:46:00,
2013-09-16 15:50:00,67.3,55.2,30.16,SSE,150,0.0,4.0,65,0.00,,---,0.39,VWS V14.01,2013-09-16 19:50:00,
2013-09-16 15:51:00,67.6,55.4,30.16,NNE,15,0.0,5.0,65,0.00,,---,0.39,VWS V14.01,2013-09-16 19:51:00,
2013-09-16 15:56:00,67.9,55.3,30.16,NW,309,3.0,5.0,64,0.00,,---,0.39,VWS V14.01,2013-09-16 19:56:00,
2013-09-16 16:00:00,67.6,54.6,30.16,NW,314,0.0,6.0,63,0.00,,---,0.39,VWS V14.01,2013-09-16 20:00:00,
2013-09-16 16:01:00,67.4,54.4,30.16,NE,39,0.0,2.0,63,0.00,,---,0.39,VWS V14.01,2013-09-16 20:01:00,
2013-09-16 16:06:00,68.1,56.3,30.15,NNW,330,1.0,3.0,66,0.00,,---,0.39,VWS V14.01,2013-09-16 20:06:00,
2013-09-16 16:10:00,68.3,55.7,30.15,WNW,291,0.0,4.0,64,0.00,,---,0.39,VWS V14.01,2013-09-16 20:10:00,
2013-09-16 16:11:00,68.6,56.0,30.15,WSW,238,0.0,2.0,64,0.00,,---,0.39,VWS V14.01,2013-09-16 20:11:00,
2013-09-16 16:16:00,69.3,55.3,30.15,WSW,240,3.0,4.0,61,0.00,,---,0.39,VWS V14.01,2013-09-16 20:16:00,
2013-09-16 16:20:00,69.4,55.8,30.15,NNE,17,0.0,4.0,62,0.00,,---,0.39,VWS V14.01,2013-09-16 20:20:00,
2013-09-16 16:21:00,69.4,54.9,30.15,WNW,292,1.0,4.0,60,0.00,,---,0.39,VWS V14.01,2013-09-16 20:21:00,
2013-09-16 16:26:00,69.3,55.3,30.15,WSW,256,1.0,5.0,61,0.00,,---,0.39,VWS V14.01,2013-09-16 20:26:00,
2013-09-16 16:30:00,69.3,55.3,30.15,WSW,240,1.0,5.0,61,0.00,,---,0.39,VWS V14.01,2013-09-16 20:30:00,
2013-09-16 16:31:00,68.8,54.8,30.15,WSW,242,1.0,2.0,61,0.00,,---,0.39,VWS V14.01,2013-09-16 20:31:00,
2013-09-16 16:36:00,68.4,55.3,30.15,South,172,0.0,2.0,63,0.00,,---,0.39,VWS V14.01,2013-09-16 20:36:00,
2013-09-16 16:40:00,68.6,56.0,30.15,North,351,0.0,2.0,64,0.00,,---,0.39,VWS V14.01,2013-09-16 20:40:00,
2013-09-16 16:41:00,68.6,54.6,30.15,NNE,30,0.0,2.0,61,0.00,,---,0.39,VWS V14.01,2013-09-16 20:41:00,
2013-09-16 16:46:00,68.4,55.8,30.15,West,259,0.0,6.0,64,0.00,,---,0.39,VWS V14.01,2013-09-16 20:46:00,
2013-09-16 16:50:00,68.6,56.0,30.15,SW,236,3.0,6.0,64,0.00,,---,0.39,VWS V14.01,2013-09-16 20:50:00,
2013-09-16 16:51:00,68.8,55.7,30.15,WSW,249,0.0,3.0,63,0.00,,---,0.39,VWS V14.01,2013-09-16 20:51:00,
2013-09-16 16:56:00,68.9,55.4,30.15,WSW,237,0.0,3.0,62,0.00,,---,0.39,VWS V14.01,2013-09-16 20:56:00,
2013-09-16 17:00:00,69.2,56.1,30.15,SSE,163,0.0,3.0,63,0.00,,---,0.39,VWS V14.01,2013-09-16 21:00:00,
2013-09-16 17:01:00,69.3,54.8,30.15,NW,314,4.0,5.0,60,0.00,,---,0.39,VWS V14.01,2013-09-16 21:01:00,
2013-09-16 17:06:00,69.2,56.1,30.15,SW,234,0.0,5.0,63,0.00,,---,0.39,VWS V14.01,2013-09-16 21:06:00,
2013-09-16 17:10:00,69.3,57.9,30.15,SW,222,0.0,5.0,67,0.00,,---,0.39,VWS V14.01,2013-09-16 21:10:00,
2013-09-16 17:11:00,69.2,54.7,30.15,NW,318,4.0,6.0,60,0.00,,---,0.39,VWS V14.01,2013-09-16 21:11:00,
2013-09-16 17:16:00,68.4,54.4,30.15,NNW,328,0.0,6.0,61,0.00,,---,0.39,VWS V14.01,2013-09-16 21:16:00,
2013-09-16 17:20:00,68.5,55.0,30.15,WNW,290,0.0,6.0,62,0.00,,---,0.39,VWS V14.01,2013-09-16 21:20:00,
2013-09-16 17:21:00,68.6,54.6,30.16,WSW,242,0.0,2.0,61,0.00,,---,0.39,VWS V14.01,2013-09-16 21:21:00,
2013-09-16 17:26:00,68.8,54.8,30.16,NW,309,0.0,2.0,61,0.00,,---,0.39,VWS V14.01,2013-09-16 21:26:00,
2013-09-16 17:30:00,69.0,55.0,30.16,NW,309,2.0,2.0,61,0.00,,---,0.39,VWS V14.01,2013-09-16 21:30:00,
2013-09-16 17:31:00,69.1,55.5,30.16,WNW,301,1.0,4.0,62,0.00,,---,0.39,VWS V14.01,2013-09-16 21:31:00,
2013-09-16 17:36:00,69.4,55.8,30.16,ENE,69,0.0,4.0,62,0.00,,---,0.39,VWS V14.01,2013-09-16 21:36:00,
2013-09-16 17:40:00,69.5,55.5,30.16,SSW,195,0.0,4.0,61,0.00,,---,0.39,VWS V14.01,2013-09-16 21:40:00,
2013-09-16 17:41:00,69.8,56.2,30.16,NNE,26,0.0,1.0,62,0.00,,---,0.39,VWS V14.01,2013-09-16 21:41:00,
2013-09-16 17:46:00,70.1,56.0,30.16,West,267,0.0,3.0,61,0.00,,---,0.39,VWS V14.01,2013-09-16 21:46:00,
2013-09-16 17:50:00,70.0,56.4,30.16,WSW,256,2.0,4.0,62,0.00,,---,0.39,VWS V14.01,2013-09-16 21:50:00,
2013-09-16 17:51:00,69.9,56.3,30.16,WSW,237,0.0,2.0,62,0.00,,---,0.39,VWS V14.01,2013-09-16 21:51:00,
2013-09-16 17:56:00,70.1,56.0,30.16,West,259,0.0,2.0,61,0.00,,---,0.39,VWS V14.01,2013-09-16 21:56:00,
2013-09-16 18:00:00,69.9,55.8,30.16,West,275,0.0,2.0,61,0.00,,---,0.39,VWS V14.01,2013-09-16 22:00:00,
2013-09-16 18:01:00,69.3,56.2,30.16,NNW,340,0.0,2.0,63,0.00,,---,0.39,VWS V14.01,2013-09-16 22:01:00,
2013-09-16 18:06:00,68.5,55.9,30.16,SSW,195,0.0,2.0,64,0.00,,---,0.39,VWS V14.01,2013-09-16 22:06:00,
2013-09-16 18:10:00,68.3,56.1,30.16,WSW,252,1.0,2.0,65,0.00,,---,0.39,VWS V14.01,2013-09-16 22:10:00,
2013-09-16 18:11:00,67.6,55.4,30.16,West,261,0.0,3.0,65,0.00,,---,0.39,VWS V14.01,2013-09-16 22:11:00,
2013-09-16 18:16:00,66.8,55.9,30.16,WSW,240,0.0,3.0,68,0.00,,---,0.39,VWS V14.01,2013-09-16 22:16:00,
2013-09-16 18:20:00,66.6,56.1,30.16,WSW,237,0.0,3.0,69,0.00,,---,0.39,VWS V14.01,2013-09-16 22:20:00,
2013-09-16 18:21:00,66.1,55.7,30.16,West,263,0.0,2.0,69,0.00,,---,0.39,VWS V14.01,2013-09-16 22:21:00,
2013-09-16 18:26:00,65.5,55.9,30.16,SW,233,0.0,2.0,71,0.00,,---,0.39,VWS V14.01,2013-09-16 22:26:00,
2013-09-16 18:30:00,65.4,55.8,30.16,SW,232,0.0,2.0,71,0.00,,---,0.39,VWS V14.01,2013-09-16 22:30:00,
2013-09-16 18:31:00,65.1,55.9,30.16,WSW,248,0.0,0.0,72,0.00,,---,0.39,VWS V14.01,2013-09-16 22:31:00,
2013-09-16 18:36:00,64.8,56.0,30.16,SW,232,0.0,1.0,73,0.00,,---,0.39,VWS V14.01,2013-09-16 22:36:00,
2013-09-16 18:40:00,64.7,56.2,30.16,WSW,237,0.0,1.0,74,0.00,,---,0.39,VWS V14.01,2013-09-16 22:40:00,
2013-09-16 18:41:00,64.5,56.0,30.16,WSW,237,0.0,0.0,74,0.00,,---,0.39,VWS V14.01,2013-09-16 22:41:00,
2013-09-16 18:46:00,64.3,56.2,30.16,SW,218,0.0,1.0,75,0.00,,---,0.39,VWS V14.01,2013-09-16 22:46:00,
2013-09-16 18:50:00,64.2,56.1,30.16,SSW,194,0.0,1.0,75,0.00,,---,0.39,VWS V14.01,2013-09-16 22:50:00,
2013-09-16 18:51:00,64.1,56.4,30.16,SSW,198,0.0,0.0,76,0.00,,---,0.39,VWS V14.01,2013-09-16 22:51:00,
2013-09-16 18:56:00,63.9,56.2,30.17,SW,215,0.0,1.0,76,0.00,,---,0.39,VWS V14.01,2013-09-16 22:56:00,
2013-09-16 19:00:00,63.8,56.5,30.17,SSW,210,0.0,1.0,77,0.00,,---,0.39,VWS V14.01,2013-09-16 23:00:00,
2013-09-16 19:01:00,63.7,56.4,30.17,WSW,239,0.0,0.0,77,0.00,,---,0.39,VWS V14.01,2013-09-16 23:01:00,
2013-09-16 19:06:00,63.4,56.4,30.16,SSW,207,0.0,1.0,78,0.00,,---,0.39,VWS V14.01,2013-09-16 23:06:00,
2013-09-16 19:10:00,63.3,56.3,30.16,SW,232,0.0,1.0,78,0.00,,---,0.39,VWS V14.01,2013-09-16 23:10:00,
2013-09-16 19:11:00,63.1,56.5,30.16,SW,219,0.0,0.0,79,0.00,,---,0.39,VWS V14.01,2013-09-16 23:11:00,
2013-09-16 19:16:00,62.8,56.2,30.16,SW,236,0.0,0.0,79,0.00,,---,0.39,VWS V14.01,2013-09-16 23:16:00,
2013-09-16 19:20:00,62.7,56.5,30.17,SW,232,0.0,0.0,80,0.00,,---,0.39,VWS V14.01,2013-09-16 23:20:00,
2013-09-16 19:21:00,62.6,56.3,30.17,SW,222,0.0,0.0,80,0.00,,---,0.39,VWS V14.01,2013-09-16 23:21:00,
2013-09-16 19:26:00,62.3,56.1,30.17,WSW,242,0.0,0.0,80,0.00,,---,0.39,VWS V14.01,2013-09-16 23:26:00,
2013-09-16 19:30:00,62.2,56.0,30.17,SW,226,0.0,0.0,80,0.00,,---,0.39,VWS V14.01,2013-09-16 23:30:00,
2013-09-16 19:31:00,62.1,56.2,30.17,SW,221,0.0,0.0,81,0.00,,---,0.39,VWS V14.01,2013-09-16 23:31:00,
2013-09-16 19:36:00,61.8,56.2,30.17,SW,225,0.0,0.0,82,0.00,,---,0.39,VWS V14.01,2013-09-16 23:36:00,
2013-09-16 19:40:00,61.7,56.2,30.17,SW,225,0.0,0.0,82,0.00,,---,0.39,VWS V14.01,2013-09-16 23:40:00,
2013-09-16 19:41:00,61.6,56.1,30.17,SW,215,0.0,0.0,82,0.00,,---,0.39,VWS V14.01,2013-09-16 23:41:00,
2013-09-16 19:46:00,61.3,56.1,30.17,SW,236,0.0,0.0,83,0.00,,---,0.39,VWS V14.01,2013-09-16 23:46:00,
2013-09-16 19:50:00,61.2,56.0,30.17,SW,236,0.0,0.0,83,0.00,,---,0.39,VWS V14.01,2013-09-16 23:50:00,
2013-09-16 19:51:00,61.0,56.1,30.17,South,173,0.0,0.0,84,0.00,,---,0.39,VWS V14.01,2013-09-16 23:51:00,
2013-09-16 19:56:00,60.7,56.2,30.17,SE,139,0.0,0.0,85,0.00,,---,0.39,VWS V14.01,2013-09-16 23:56:00,
2013-09-16 20:00:00,60.6,56.1,30.18,SE,138,0.0,0.0,85,0.00,,---,0.39,VWS V14.01,2013-09-17 00:00:00,
2013-09-16 20:01:00,60.4,55.9,30.18,SE,138,0.0,0.0,85,0.00,,---,0.39,VWS V14.01,2013-09-17 00:01:00,
2013-09-16 20:06:00,60.1,55.9,30.18,SE,138,0.0,0.0,86,0.00,,---,0.39,VWS V14.01,2013-09-17 00:06:00,
2013-09-16 20:10:00,60.1,55.9,30.18,SE,138,0.0,0.0,86,0.00,,---,0.39,VWS V14.01,2013-09-17 00:10:00,
2013-09-16 20:11:00,59.9,55.7,30.18,SE,139,0.0,0.0,86,0.00,,---,0.39,VWS V14.01,2013-09-17 00:11:00,
2013-09-16 20:16:00,59.6,55.7,30.19,SE,139,0.0,0.0,87,0.00,,---,0.39,VWS V14.01,2013-09-17 00:16:00,
2013-09-16 20:20:00,59.6,55.7,30.19,SE,139,0.0,0.0,87,0.00,,---,0.39,VWS V14.01,2013-09-17 00:20:00,
2013-09-16 20:21:00,59.6,55.7,30.19,SE,138,0.0,0.0,87,0.00,,---,0.39,VWS V14.01,2013-09-17 00:21:00,
2013-09-16 20:26:00,59.6,55.7,30.19,SE,139,0.0,0.0,87,0.00,,---,0.39,VWS V14.01,2013-09-17 00:26:00,
2013-09-16 20:30:00,59.6,55.7,30.19,SE,138,0.0,0.0,87,0.00,,---,0.39,VWS V14.01,2013-09-17 00:30:00,
2013-09-16 20:31:00,59.7,55.8,30.20,NNE,22,0.0,0.0,87,0.00,,---,0.39,VWS V14.01,2013-09-17 00:31:00,
2013-09-16 20:36:00,60.0,55.8,30.20,NNE,31,5.0,8.0,86,0.00,,---,0.39,VWS V14.01,2013-09-17 00:36:00,
2013-09-16 20:40:00,60.1,55.9,30.20,NNW,340,0.0,8.0,86,0.00,,---,0.39,VWS V14.01,2013-09-17 00:40:00,
2013-09-16 20:41:00,60.3,56.1,30.20,NNW,327,1.0,2.0,86,0.00,,---,0.39,VWS V14.01,2013-09-17 00:41:00,
2013-09-16 20:46:00,60.4,56.2,30.21,NNW,342,0.0,2.0,86,0.00,,---,0.39,VWS V14.01,2013-09-17 00:46:00,
2013-09-16 20:50:00,60.4,55.9,30.21,NW,309,0.0,2.0,85,0.00,,---,0.39,VWS V14.01,2013-09-17 00:50:00,
2013-09-16 20:51:00,60.6,55.4,30.21,NNW,347,1.0,2.0,83,0.00,,---,0.39,VWS V14.01,2013-09-17 00:51:00,
2013-09-16 20:56:00,61.0,55.1,30.21,NNE,22,1.0,5.0,81,0.00,,---,0.39,VWS V14.01,2013-09-17 00:56:00,
2013-09-16 21:00:00,61.2,55.0,30.22,NNW,338,2.0,5.0,80,0.00,,---,0.39,VWS V14.01,2013-09-17 01:00:00,
2013-09-16 21:01:00,61.4,54.5,30.22,NW,324,1.0,6.0,78,0.00,,---,0.39,VWS V14.01,2013-09-17 01:01:00,
2013-09-16 21:06:00,61.6,54.7,30.22,North,349,1.0,6.0,78,0.00,,---,0.39,VWS V14.01,2013-09-17 01:06:00,
2013-09-16 21:10:00,61.6,54.3,30.22,North,5,0.0,6.0,77,0.00,,---,0.39,VWS V14.01,2013-09-17 01:10:00,
2013-09-16 21:11:00,61.7,54.8,30.22,NNE,17,1.0,2.0,78,0.00,,---,0.39,VWS V14.01,2013-09-17 01:11:00,
2013-09-16 21:16:00,61.7,54.8,30.22,NNE,31,3.0,4.0,78,0.00,,---,0.39,VWS V14.01,2013-09-17 01:16:00,
2013-09-16 21:20:00,61.6,54.3,30.22,NNE,15,3.0,4.0,77,0.00,,---,0.39,VWS V14.01,2013-09-17 01:20:00,
2013-09-16 21:21:00,61.6,54.3,30.23,NNE,30,0.0,4.0,77,0.00,,---,0.39,VWS V14.01,2013-09-17 01:21:00,
2013-09-16 21:26:00,61.5,54.2,30.23,NNE,30,1.0,6.0,77,0.00,,---,0.39,VWS V14.01,2013-09-17 01:26:00,
2013-09-16 21:30:00,61.5,54.2,30.23,WNW,299,2.0,7.0,77,0.00,,---,0.39,VWS V14.01,2013-09-17 01:30:00,
2013-09-16 21:31:00,61.4,54.1,30.23,NE,42,0.0,5.0,77,0.00,,---,0.39,VWS V14.01,2013-09-17 01:31:00,
2013-09-16 21:36:00,61.3,53.7,30.23,NNE,13,0.0,5.0,76,0.00,,---,0.39,VWS V14.01,2013-09-17 01:36:00,
2013-09-16 21:40:00,61.3,54.0,30.23,NNE,23,2.0,5.0,77,0.00,,---,0.39,VWS V14.01,2013-09-17 01:40:00,
2013-09-16 21:41:00,61.2,53.9,30.23,NE,39,0.0,2.0,77,0.00,,---,0.39,VWS V14.01,2013-09-17 01:41:00,
2013-09-16 21:46:00,61.0,53.8,30.24,ENE,70,0.0,3.0,77,0.00,,---,0.39,VWS V14.01,2013-09-17 01:46:00,
2013-09-16 21:50:00,61.0,53.8,30.24,NE,38,0.0,3.0,77,0.00,,---,0.39,VWS V14.01,2013-09-17 01:50:00,
2013-09-16 21:51:00,60.9,54.0,30.24,NE,35,1.0,5.0,78,0.00,,---,0.39,VWS V14.01,2013-09-17 01:51:00,
2013-09-16 21:57:00,60.8,53.9,30.24,NNE,31,0.0,5.0,78,0.00,,---,0.39,VWS V14.01,2013-09-17 01:57:00,
2013-09-16 22:00:00,60.7,53.8,30.24,NNE,15,0.0,5.0,78,0.00,,---,0.39,VWS V14.01,2013-09-17 02:00:00,
2013-09-16 22:02:00,60.5,53.6,30.24,North,350,0.0,1.0,78,0.00,,---,0.39,VWS V14.01,2013-09-17 02:02:00,
2013-09-16 22:07:00,60.3,53.8,30.24,NNW,342,0.0,2.0,79,0.00,,---,0.39,VWS V14.01,2013-09-17 02:07:00,
2013-09-16 22:10:00,60.3,53.8,30.24,NNE,12,0.0,2.0,79,0.00,,---,0.39,VWS V14.01,2013-09-17 02:10:00,
2013-09-16 22:12:00,60.1,53.6,30.24,North,351,0.0,1.0,79,0.00,,---,0.39,VWS V14.01,2013-09-17 02:12:00,
2013-09-16 22:17:00,59.9,53.4,30.24,NNW,334,0.0,1.0,79,0.00,,---,0.39,VWS V14.01,2013-09-17 02:17:00,
2013-09-16 22:20:00,59.9,53.4,30.24,NW,325,0.0,1.0,79,0.00,,---,0.39,VWS V14.01,2013-09-17 02:20:00,
2013-09-16 22:22:00,59.7,53.2,30.25,NNW,329,0.0,3.0,79,0.00,,---,0.39,VWS V14.01,2013-09-17 02:22:00,
2013-09-16 22:27:00,59.5,53.0,30.25,NNW,328,0.0,3.0,79,0.00,,---,0.39,VWS V14.01,2013-09-17 02:27:00,
2013-09-16 22:30:00,59.5,53.3,30.25,West,280,0.0,3.0,80,0.00,,---,0.39,VWS V14.01,2013-09-17 02:30:00,
2013-09-16 22:32:00,59.3,53.1,30.25,NW,326,1.0,2.0,80,0.00,,---,0.39,VWS V14.01,2013-09-17 02:32:00,
2013-09-16 22:37:00,59.1,52.9,30.25,NNW,331,0.0,3.0,80,0.00,,---,0.39,VWS V14.01,2013-09-17 02:37:00,
2013-09-16 22:40:00,59.1,52.6,30.25,NNE,32,0.0,3.0,79,0.00,,---,0.39,VWS V14.01,2013-09-17 02:40:00,
2013-09-16 22:42:00,59.0,52.8,30.25,NW,320,0.0,2.0,80,0.00,,---,0.39,VWS V14.01,2013-09-17 02:42:00,
2013-09-16 22:47:00,58.8,52.7,30.25,NNE,20,0.0,3.0,80,0.00,,---,0.39,VWS V14.01,2013-09-17 02:47:00,
2013-09-16 22:50:00,58.8,52.3,30.25,NW,315,0.0,3.0,79,0.00,,---,0.39,VWS V14.01,2013-09-17 02:50:00,
2013-09-16 22:52:00,58.7,52.6,30.25,North,360,1.0,3.0,80,0.00,,---,0.39,VWS V14.01,2013-09-17 02:52:00,
2013-09-16 22:57:00,58.5,52.4,30.25,NNW,348,0.0,3.0,80,0.00,,---,0.39,VWS V14.01,2013-09-17 02:57:00,
2013-09-16 23:00:00,58.4,52.3,30.25,NE,53,0.0,3.0,80,0.00,,---,0.39,VWS V14.01,2013-09-17 03:00:00,
2013-09-16 23:02:00,58.3,52.2,30.25,North,349,3.0,5.0,80,0.00,,---,0.39,VWS V14.01,2013-09-17 03:02:00,
2013-09-16 23:07:00,58.1,52.0,30.25,NE,36,0.0,5.0,80,0.00,,---,0.39,VWS V14.01,2013-09-17 03:07:00,
2013-09-16 23:10:00,58.0,51.9,30.25,NNE,19,1.0,5.0,80,0.00,,---,0.39,VWS V14.01,2013-09-17 03:10:00,
2013-09-16 23:12:00,57.9,52.1,30.26,NW,306,0.0,5.0,81,0.00,,---,0.39,VWS V14.01,2013-09-17 03:12:00,
2013-09-16 23:17:00,57.5,51.7,30.26,NNW,348,0.0,5.0,81,0.00,,---,0.39,VWS V14.01,2013-09-17 03:17:00,
2013-09-16 23:20:00,57.4,52.0,30.26,NNE,15,0.0,5.0,82,0.00,,---,0.39,VWS V14.01,2013-09-17 03:20:00,
2013-09-16 23:22:00,57.1,51.7,30.26,ENE,70,0.0,3.0,82,0.00,,---,0.39,VWS V14.01,2013-09-17 03:22:00,
2013-09-16 23:27:00,56.8,51.4,30.26,North,5,0.0,3.0,82,0.00,,---,0.39,VWS V14.01,2013-09-17 03:27:00,
2013-09-16 23:30:00,56.7,51.6,30.26,NE,49,2.0,3.0,83,0.00,,---,0.39,VWS V14.01,2013-09-17 03:30:00,
2013-09-16 23:32:00,56.6,51.5,30.27,NNE,16,0.0,3.0,83,0.00,,---,0.39,VWS V14.01,2013-09-17 03:32:00,
2013-09-16 23:37:00,56.3,51.2,30.27,North,11,0.0,4.0,83,0.00,,---,0.39,VWS V14.01,2013-09-17 03:37:00,
2013-09-16 23:40:00,56.3,51.2,30.27,NNW,327,0.0,4.0,83,0.00,,---,0.39,VWS V14.01,2013-09-17 03:40:00,
2013-09-16 23:42:00,56.1,51.0,30.27,NW,310,0.0,5.0,83,0.00,,---,0.39,VWS V14.01,2013-09-17 03:42:00,
2013-09-16 23:47:00,55.9,51.1,30.27,West,280,0.0,5.0,84,0.00,,---,0.39,VWS V14.01,2013-09-17 03:47:00,
2013-09-16 23:50:00,55.8,51.0,30.27,NW,306,1.0,5.0,84,0.00,,---,0.39,VWS V14.01,2013-09-17 03:50:00,
2013-09-16 23:52:00,55.5,50.8,30.27,NNW,327,0.0,2.0,84,0.00,,---,0.39,VWS V14.01,2013-09-17 03:52:00,
2013-09-16 23:57:00,55.4,50.7,30.27,NE,36,1.0,5.0,84,0.00,,---,0.39,VWS V14.01,2013-09-17 03:57:00,